createdAt,value
2023-09-24T00:01:05.582Z,11.85
2023-09-24T00:04:10.638Z,11.78
2023-09-24T00:07:02.645Z,11.84
2023-09-24T00:09:47.791Z,11.93
2023-09-24T00:12:39.658Z,11.94
2023-09-24T00:15:24.701Z,11.89
2023-09-24T00:18:16.711Z,11.97
2023-09-24T00:21:02.554Z,11.87
2023-09-24T00:23:53.641Z,11.91
2023-09-24T00:26:39.948Z,11.81
2023-09-24T00:29:31.643Z,11.86
2023-09-24T00:32:16.692Z,11.69
2023-09-24T00:35:07.614Z,11.70
2023-09-24T00:37:53.002Z,11.68
2023-09-24T00:40:44.601Z,11.62
2023-09-24T00:43:32.560Z,11.61
2023-09-24T00:46:24.711Z,11.53
2023-09-24T00:49:09.787Z,11.52
2023-09-24T00:52:01.632Z,11.42
2023-09-24T00:54:53.648Z,11.43
2023-09-24T00:57:39.467Z,11.45
2023-09-24T01:00:33.597Z,11.40
2023-09-24T01:03:38.767Z,11.42
2023-09-24T01:06:31.605Z,11.28
2023-09-24T01:09:18.138Z,11.31
2023-09-24T01:12:10.623Z,11.30
2023-09-24T01:14:58.520Z,11.24
2023-09-24T01:17:50.888Z,11.23
2023-09-24T01:20:37.401Z,11.16
2023-09-24T01:23:28.657Z,11.17
2023-09-24T01:26:14.582Z,11.11
2023-09-24T01:29:06.634Z,11.00
2023-09-24T01:31:58.629Z,10.91
2023-09-24T01:34:43.609Z,10.96
2023-09-24T01:37:34.650Z,11.09
2023-09-24T01:40:22.216Z,11.02
2023-09-24T01:43:15.639Z,11.07
2023-09-24T01:46:00.885Z,11.09
2023-09-24T01:48:52.645Z,11.10
2023-09-24T01:51:37.488Z,11.05
2023-09-24T01:54:28.660Z,11.02
2023-09-24T01:57:13.786Z,11.04
2023-09-24T02:00:06.670Z,11.09
2023-09-24T02:03:02.224Z,11.17
2023-09-24T02:06:07.680Z,11.17
2023-09-24T02:08:59.693Z,11.12
2023-09-24T02:11:44.610Z,11.13
2023-09-24T02:14:36.641Z,11.16
2023-09-24T02:17:22.615Z,11.17
2023-09-24T02:20:37.664Z,11.13
2023-09-24T02:23:23.813Z,11.09
2023-09-24T02:26:21.653Z,11.15
2023-09-24T02:29:14.630Z,11.18
2023-09-24T02:31:59.538Z,11.17
2023-09-24T02:34:52.666Z,11.12
2023-09-24T02:37:43.626Z,11.07
2023-09-24T02:40:35.648Z,10.99
2023-09-24T02:43:20.894Z,11.03
2023-09-24T02:46:13.664Z,10.92
2023-09-24T02:49:04.636Z,10.80
2023-09-24T02:51:50.790Z,10.71
2023-09-24T02:54:42.658Z,10.67
2023-09-24T02:57:28.200Z,10.46
2023-09-24T03:00:34.718Z,10.32
2023-09-24T03:03:19.926Z,10.23
2023-09-24T03:06:19.664Z,10.12
2023-09-24T03:09:07.498Z,10.13
2023-09-24T03:11:59.676Z,10.25
2023-09-24T03:14:44.888Z,10.23
2023-09-24T03:17:36.741Z,10.09
2023-09-24T03:20:28.706Z,10.08
2023-09-24T03:23:20.651Z,10.04
2023-09-24T03:26:05.825Z,10.05
2023-09-24T03:28:58.653Z,10.15
2023-09-24T03:31:50.693Z,10.16
2023-09-24T03:34:36.402Z,10.15
2023-09-24T03:37:27.679Z,10.10
2023-09-24T03:40:24.675Z,10.04
2023-09-24T03:43:09.782Z,10.00
2023-09-24T03:46:01.724Z,9.95
2023-09-24T03:48:46.635Z,9.90
2023-09-24T03:51:38.676Z,9.87
2023-09-24T03:54:23.761Z,9.89
2023-09-24T03:57:15.698Z,9.91
2023-09-24T04:00:07.661Z,9.90
2023-09-24T04:02:59.806Z,9.82
2023-09-24T04:05:51.812Z,9.81
2023-09-24T04:08:43.694Z,9.73
2023-09-24T04:11:35.673Z,9.72
2023-09-24T04:14:21.177Z,9.70
2023-09-24T04:17:17.064Z,9.64
2023-09-24T04:20:03.194Z,9.56
2023-09-24T04:22:55.688Z,9.55
2023-09-24T04:25:47.657Z,9.60
2023-09-24T04:28:33.748Z,9.53
2023-09-24T04:31:25.665Z,9.45
2023-09-24T04:34:13.702Z,9.36
2023-09-24T04:37:05.707Z,9.29
2023-09-24T04:39:51.091Z,9.25
2023-09-24T04:42:42.682Z,9.24
2023-09-24T04:45:27.897Z,9.20
2023-09-24T04:48:19.766Z,9.21
2023-09-24T04:51:04.936Z,9.20
2023-09-24T04:53:58.545Z,9.23
2023-09-24T04:56:50.752Z,9.20
2023-09-24T04:59:35.966Z,9.14
2023-09-24T05:02:28.695Z,9.17
2023-09-24T05:05:21.023Z,9.20
2023-09-24T05:08:12.681Z,9.14
2023-09-24T05:11:04.698Z,9.18
2023-09-24T05:13:56.674Z,9.16
2023-09-24T05:16:42.112Z,9.20
2023-09-24T05:19:33.675Z,9.11
2023-09-24T05:22:25.693Z,9.25
2023-09-24T05:25:16.703Z,9.31
2023-09-24T05:28:01.564Z,9.35
2023-09-24T05:31:00.793Z,9.27
2023-09-24T05:33:52.700Z,9.28
2023-09-24T05:36:37.722Z,9.30
2023-09-24T05:39:29.684Z,9.24
2023-09-24T05:42:14.809Z,9.22
2023-09-24T05:45:07.734Z,9.35
2023-09-24T05:47:53.009Z,9.41
2023-09-24T05:50:44.735Z,9.33
2023-09-24T05:53:30.016Z,9.37
2023-09-24T05:56:21.694Z,9.50
2023-09-24T05:59:06.765Z,9.43
2023-09-24T06:01:57.739Z,9.53
2023-09-24T06:04:56.730Z,9.61
2023-09-24T06:07:55.696Z,9.66
2023-09-24T06:10:54.691Z,9.71
2023-09-24T06:13:39.949Z,9.70
2023-09-24T06:16:31.773Z,9.68
2023-09-24T06:19:17.078Z,9.76
2023-09-24T06:22:08.698Z,9.83
2023-09-24T06:24:54.644Z,9.90
2023-09-24T06:27:47.706Z,10.04
2023-09-24T06:30:32.697Z,10.18
2023-09-24T06:33:24.757Z,10.22
2023-09-24T06:36:10.722Z,10.31
2023-09-24T06:39:03.863Z,10.29
2023-09-24T06:41:49.293Z,10.38
2023-09-24T06:44:40.767Z,10.40
2023-09-24T06:47:25.744Z,10.49
2023-09-24T06:50:17.693Z,10.46
2023-09-24T06:53:03.239Z,10.47
2023-09-24T06:55:54.728Z,10.52
2023-09-24T06:58:45.703Z,10.67
2023-09-24T07:01:37.713Z,10.82
2023-09-24T07:04:29.786Z,10.86
2023-09-24T07:07:27.728Z,10.88
2023-09-24T07:10:13.122Z,11.08
2023-09-24T07:13:04.731Z,11.19
2023-09-24T07:15:56.768Z,11.27
2023-09-24T07:18:42.414Z,11.27
2023-09-24T07:21:39.738Z,11.36
2023-09-24T07:24:32.728Z,11.61
2023-09-24T07:27:17.840Z,11.61
2023-09-24T07:30:09.738Z,11.82
2023-09-24T07:32:54.688Z,12.00
2023-09-24T07:35:46.751Z,12.10
2023-09-24T07:38:38.814Z,12.15
2023-09-24T07:41:30.718Z,12.25
2023-09-24T07:44:15.789Z,12.44
2023-09-24T07:47:07.740Z,12.45
2023-09-24T07:49:52.733Z,12.48
2023-09-24T07:52:44.720Z,12.63
2023-09-24T07:55:30.030Z,12.68
2023-09-24T07:58:21.721Z,12.80
2023-09-24T08:01:09.397Z,12.91
2023-09-24T08:04:00.804Z,13.06
2023-09-24T08:06:52.898Z,13.22
2023-09-24T08:09:45.719Z,13.27
2023-09-24T08:12:30.718Z,13.32
2023-09-24T08:15:21.839Z,13.58
2023-09-24T08:18:10.290Z,13.75
2023-09-24T08:21:02.761Z,13.78
2023-09-24T08:23:48.269Z,13.97
2023-09-24T08:26:41.760Z,14.10
2023-09-24T08:29:26.715Z,14.33
2023-09-24T08:32:18.753Z,14.44
2023-09-24T08:35:04.094Z,14.54
2023-09-24T08:37:56.739Z,14.60
2023-09-24T08:40:42.163Z,14.80
2023-09-24T08:43:35.782Z,14.80
2023-09-24T08:46:21.391Z,15.01
2023-09-24T08:49:13.740Z,15.32
2023-09-24T08:52:02.117Z,15.56
2023-09-24T08:54:55.736Z,16.09
2023-09-24T08:57:43.031Z,18.35
2023-09-24T09:00:34.751Z,20.27
2023-09-24T09:03:26.819Z,20.82
2023-09-24T09:06:19.779Z,19.19
2023-09-24T09:09:11.817Z,21.34
2023-09-24T09:11:56.885Z,22.15
2023-09-24T09:14:48.769Z,22.93
2023-09-24T09:17:41.284Z,23.65
2023-09-24T09:20:49.770Z,21.21
2023-09-24T09:23:42.353Z,22.64
2023-09-24T09:26:35.763Z,23.48
2023-09-24T09:29:28.796Z,22.83
2023-09-24T09:32:20.762Z,21.75
2023-09-24T09:35:06.879Z,23.67
2023-09-24T09:38:00.759Z,22.71
2023-09-24T09:40:52.751Z,22.93
2023-09-24T09:43:39.326Z,21.84
2023-09-24T09:46:32.826Z,23.04
2023-09-24T09:49:27.760Z,23.17
2023-09-24T09:52:26.761Z,21.58
2023-09-24T09:55:11.860Z,22.18
2023-09-24T09:58:19.753Z,23.42
2023-09-24T10:01:08.159Z,22.42
2023-09-24T10:04:00.790Z,23.28
2023-09-24T10:06:52.800Z,21.91
2023-09-24T10:09:45.777Z,20.94
2023-09-24T10:12:37.651Z,19.79
2023-09-24T10:15:37.782Z,21.28
2023-09-24T10:18:23.836Z,22.63
2023-09-24T10:21:15.826Z,23.80
2023-09-24T10:24:21.744Z,23.44
2023-09-24T10:27:15.850Z,23.99
2023-09-24T10:30:08.833Z,24.66
2023-09-24T10:33:00.836Z,22.80
2023-09-24T10:36:23.914Z,24.13
2023-09-24T10:39:18.864Z,23.06
2023-09-24T10:42:16.871Z,23.38
2023-09-24T10:45:13.862Z,24.04
2023-09-24T10:48:09.848Z,22.78
2023-09-24T10:50:54.918Z,24.77
2023-09-24T10:53:46.824Z,23.43
2023-09-24T10:56:31.985Z,24.23
2023-09-24T10:59:23.780Z,23.64
2023-09-24T11:02:22.089Z,24.71
2023-09-24T11:05:14.780Z,25.26
2023-09-24T11:08:07.024Z,24.09
2023-09-24T11:10:58.794Z,23.98
2023-09-24T11:13:50.800Z,23.94
2023-09-24T11:16:35.900Z,24.12
2023-09-24T11:22:25.823Z,23.30
2023-09-24T11:25:21.796Z,23.61
2023-09-24T11:28:13.833Z,23.44
2023-09-24T11:31:05.823Z,20.94
2023-09-24T11:33:57.472Z,21.44
2023-09-24T11:36:59.826Z,22.01
2023-09-24T11:39:44.961Z,21.59
2023-09-24T11:42:36.815Z,20.34
2023-09-24T11:45:47.877Z,20.27
2023-09-24T11:48:39.918Z,20.30
2023-09-24T11:51:26.885Z,20.38
2023-09-24T11:54:20.871Z,20.29
2023-09-24T11:57:06.029Z,20.48
2023-09-24T11:59:57.868Z,20.55
2023-09-24T12:02:42.911Z,20.67
2023-09-24T12:05:35.947Z,20.72
2023-09-24T12:08:21.586Z,20.43
2023-09-24T12:11:13.858Z,20.45
2023-09-24T12:14:04.847Z,20.52
2023-09-24T12:16:56.891Z,20.65
2023-09-24T12:19:41.750Z,20.59
2023-09-24T12:22:39.840Z,20.24
2023-09-24T12:25:24.679Z,20.53
2023-09-24T12:28:19.832Z,20.55
2023-09-24T12:31:04.912Z,20.44
2023-09-24T12:33:57.010Z,20.13
2023-09-24T12:36:42.087Z,20.15
2023-09-24T12:39:33.952Z,20.29
2023-09-24T12:42:19.140Z,20.38
2023-09-24T12:45:12.016Z,20.48
2023-09-24T12:47:57.222Z,20.53
2023-09-24T12:50:48.942Z,20.59
2023-09-24T12:53:34.744Z,20.33
2023-09-24T12:56:26.846Z,20.38
2023-09-24T12:59:11.722Z,20.29
2023-09-24T13:02:03.910Z,20.13
2023-09-24T13:04:48.972Z,20.35
2023-09-24T13:07:40.861Z,20.44
2023-09-24T13:10:25.904Z,20.69
2023-09-24T13:13:17.874Z,20.66
2023-09-24T13:16:02.924Z,20.74
2023-09-24T13:18:53.930Z,20.78
2023-09-24T13:21:45.429Z,20.16
2023-09-24T13:24:36.858Z,20.27
2023-09-24T13:27:22.107Z,20.55
2023-09-24T13:30:14.954Z,20.64
2023-09-24T13:33:06.974Z,20.14
2023-09-24T13:35:58.892Z,20.69
2023-09-24T13:38:49.948Z,20.61
2023-09-24T13:41:35.093Z,20.71
2023-09-24T13:44:26.895Z,20.48
2023-09-24T13:47:16.142Z,20.55
2023-09-24T13:50:07.884Z,20.48
2023-09-24T13:52:58.861Z,20.69
2023-09-24T13:55:44.572Z,20.61
2023-09-24T13:58:36.925Z,20.92
2023-09-24T14:01:29.148Z,20.71
2023-09-24T14:04:14.431Z,20.52
2023-09-24T14:07:05.872Z,20.72
2023-09-24T14:10:09.658Z,20.49
2023-09-24T14:13:01.888Z,20.32
2023-09-24T14:15:47.769Z,20.66
2023-09-24T14:18:40.013Z,20.41
2023-09-24T14:21:32.183Z,20.48
2023-09-24T14:24:23.962Z,20.38
2023-09-24T14:27:09.644Z,20.42
2023-09-24T14:30:01.924Z,20.36
2023-09-24T14:32:47.961Z,20.63
2023-09-24T14:35:39.909Z,20.73
2023-09-24T14:38:26.074Z,20.66
2023-09-24T14:41:18.893Z,20.58
2023-09-24T14:44:06.361Z,20.49
2023-09-24T14:46:57.954Z,20.55
2023-09-24T14:49:42.783Z,20.15
2023-09-24T14:52:34.879Z,20.40
2023-09-24T14:55:19.964Z,20.44
2023-09-24T14:58:11.885Z,20.45
2023-09-24T15:01:05.321Z,20.39
2023-09-24T15:03:57.048Z,20.36
2023-09-24T15:06:42.083Z,20.43
2023-09-24T15:09:33.912Z,20.17
2023-09-24T15:12:19.428Z,20.23
2023-09-24T15:15:11.946Z,20.30
2023-09-24T15:18:05.004Z,20.24
2023-09-24T15:21:10.942Z,20.19
2023-09-24T15:24:02.928Z,20.02
2023-09-24T15:26:53.955Z,20.07
2023-09-24T15:29:45.989Z,20.07
2023-09-24T15:32:31.032Z,19.91
2023-09-24T15:35:22.924Z,20.03
2023-09-24T15:38:12.397Z,19.95
2023-09-24T15:41:03.940Z,19.95
2023-09-24T15:43:49.034Z,19.84
2023-09-24T15:46:40.937Z,19.85
2023-09-24T15:49:32.916Z,19.84
2023-09-24T15:52:17.756Z,19.83
2023-09-24T15:55:09.960Z,19.78
2023-09-24T15:57:54.819Z,19.72
2023-09-24T16:00:46.947Z,19.63
2023-09-24T16:03:33.319Z,19.54
2023-09-24T16:06:24.954Z,19.55
2023-09-24T16:09:09.817Z,19.50
2023-09-24T16:12:00.945Z,19.48
2023-09-24T16:14:45.837Z,19.37
2023-09-24T16:17:37.979Z,19.36
2023-09-24T16:20:46.452Z,19.31
2023-09-24T16:23:38.916Z,19.25
2023-09-24T16:26:24.097Z,19.20
2023-09-24T16:29:15.920Z,19.15
2023-09-24T16:32:01.601Z,19.10
2023-09-24T16:34:55.933Z,19.09
2023-09-24T16:37:47.990Z,18.99
2023-09-24T16:40:33.276Z,18.90
2023-09-24T16:43:24.938Z,18.89
2023-09-24T16:46:16.981Z,18.82
2023-09-24T16:49:01.969Z,18.67
2023-09-24T16:51:54.973Z,18.61
2023-09-24T16:54:40.261Z,18.50
2023-09-24T16:57:31.943Z,18.45
2023-09-24T17:00:23.990Z,18.34
2023-09-24T17:03:16.048Z,18.24
2023-09-24T17:06:07.977Z,18.16
2023-09-24T17:08:59.998Z,18.04
2023-09-24T17:11:45.043Z,17.98
2023-09-24T17:14:36.938Z,17.91
2023-09-24T17:17:28.984Z,17.83
2023-09-24T17:20:14.088Z,17.71
2023-09-24T17:23:12.932Z,17.62
2023-09-24T17:26:08.779Z,17.49
2023-09-24T17:29:00.953Z,17.53
2023-09-24T17:31:52.976Z,17.40
2023-09-24T17:34:37.926Z,17.38
2023-09-24T17:37:29.963Z,17.31
2023-09-24T17:40:21.962Z,17.25
2023-09-24T17:43:13.951Z,17.18
2023-09-24T17:46:11.081Z,17.07
2023-09-24T17:49:02.948Z,16.88
2023-09-24T17:51:48.297Z,16.62
2023-09-24T17:54:41.184Z,16.65
2023-09-24T17:57:33.022Z,16.67
2023-09-24T18:00:18.187Z,16.64
2023-09-24T18:03:10.180Z,16.61
2023-09-24T18:06:02.060Z,16.57
2023-09-24T18:08:53.994Z,16.51
2023-09-24T18:11:39.150Z,16.42
2023-09-24T18:14:30.986Z,16.35
2023-09-24T18:17:15.838Z,16.29
2023-09-24T18:20:07.967Z,16.16
2023-09-24T18:22:59.171Z,16.10
2023-09-24T18:25:50.989Z,15.91
2023-09-24T18:28:36.145Z,15.75
2023-09-24T18:31:28.002Z,15.68
2023-09-24T18:34:18.981Z,15.55
2023-09-24T18:37:03.852Z,15.43
2023-09-24T18:39:55.348Z,15.38
2023-09-24T18:43:09.182Z,15.56
2023-09-24T18:46:08.011Z,15.62
2023-09-24T18:48:53.447Z,15.50
2023-09-24T18:51:46.986Z,15.49
2023-09-24T18:54:38.980Z,15.43
2023-09-24T18:57:24.907Z,15.40
2023-09-24T19:00:19.019Z,15.38
2023-09-24T19:03:11.486Z,15.30
2023-09-24T19:05:58.370Z,15.30
2023-09-24T19:08:50.197Z,15.22
2023-09-24T19:11:35.153Z,15.12
2023-09-24T19:14:26.976Z,15.08
2023-09-24T19:17:12.270Z,14.98
2023-09-24T19:20:04.986Z,14.90
2023-09-24T19:22:56.237Z,14.92
2023-09-24T19:25:47.988Z,14.88
2023-09-24T19:28:32.887Z,14.85
2023-09-24T19:31:25.126Z,14.77
2023-09-24T19:34:10.264Z,14.69
2023-09-24T19:37:02.022Z,14.59
2023-09-24T19:39:47.489Z,14.48
2023-09-24T19:42:41.115Z,14.37
2023-09-24T19:45:26.212Z,14.28
2023-09-24T19:48:19.112Z,14.22
2023-09-24T19:51:04.216Z,14.13
2023-09-24T19:53:57.098Z,14.06
2023-09-24T19:56:42.543Z,14.01
2023-09-24T19:59:34.016Z,13.93
2023-09-24T20:02:18.961Z,13.87
2023-09-24T20:05:14.082Z,13.83
2023-09-24T20:08:00.217Z,13.80
2023-09-24T20:10:54.133Z,13.77
2023-09-24T20:13:52.040Z,13.70
2023-09-24T20:16:39.085Z,13.62
2023-09-24T20:19:31.030Z,13.57
2023-09-24T20:22:26.763Z,13.47
2023-09-24T20:25:29.017Z,13.47
2023-09-24T20:28:14.018Z,13.46
2023-09-24T20:31:08.287Z,13.38
2023-09-24T20:34:01.384Z,13.27
2023-09-24T20:36:53.124Z,13.17
2023-09-24T20:39:45.051Z,13.08
2023-09-24T20:42:30.125Z,13.06
2023-09-24T20:45:23.208Z,13.04
2023-09-24T20:48:15.103Z,12.93
2023-09-24T20:51:00.146Z,12.83
2023-09-24T20:53:52.043Z,12.72
2023-09-24T20:56:44.270Z,12.67
2023-09-24T20:59:35.965Z,12.62
2023-09-24T21:02:27.116Z,12.50
2023-09-24T21:05:13.039Z,12.50
2023-09-24T21:08:05.050Z,12.51
2023-09-24T21:10:50.309Z,12.48
2023-09-24T21:13:43.086Z,12.46
2023-09-24T21:16:28.409Z,12.48
2023-09-24T21:19:21.075Z,12.53
2023-09-24T21:22:27.032Z,12.49
2023-09-24T21:25:19.051Z,12.45
2023-09-24T21:28:04.596Z,12.51
2023-09-24T21:30:56.048Z,12.44
2023-09-24T21:33:43.407Z,12.44
2023-09-24T21:36:35.042Z,12.38
2023-09-24T21:39:19.985Z,12.28
2023-09-24T21:42:11.043Z,12.21
2023-09-24T21:45:01.137Z,12.20
2023-09-24T21:47:53.127Z,12.17
2023-09-24T21:50:38.005Z,12.14
2023-09-24T21:53:30.046Z,12.10
2023-09-24T21:56:22.061Z,12.04
2023-09-24T21:59:07.144Z,12.00
2023-09-24T22:02:02.110Z,11.96
2023-09-24T22:04:47.663Z,11.98
2023-09-24T22:07:40.047Z,11.91
2023-09-24T22:10:32.057Z,11.85
2023-09-24T22:13:17.613Z,11.82
2023-09-24T22:16:09.058Z,11.80
2023-09-24T22:18:54.228Z,11.89
2023-09-24T22:21:46.041Z,11.83
2023-09-24T22:24:37.347Z,11.79
2023-09-24T22:27:29.179Z,11.76
2023-09-24T22:30:15.145Z,11.72
2023-09-24T22:33:07.123Z,11.68
2023-09-24T22:35:52.077Z,11.68
2023-09-24T22:38:45.653Z,11.60
2023-09-24T22:41:37.076Z,11.56
2023-09-24T22:44:24.248Z,11.47
2023-09-24T22:47:16.087Z,11.40
2023-09-24T22:50:08.135Z,11.38
2023-09-24T22:53:00.077Z,11.30
2023-09-24T22:55:45.794Z,11.23
2023-09-24T22:58:37.069Z,11.19
2023-09-24T23:01:28.294Z,11.21
2023-09-24T23:04:27.177Z,11.26
2023-09-24T23:07:19.037Z,11.22
2023-09-24T23:10:12.099Z,11.23
2023-09-24T23:13:04.041Z,11.19
2023-09-24T23:15:55.070Z,11.14
2023-09-24T23:18:40.723Z,11.16
2023-09-24T23:21:32.081Z,11.15
2023-09-24T23:24:17.066Z,11.13
2023-09-24T23:27:10.105Z,11.07
2023-09-24T23:30:02.131Z,11.12
2023-09-24T23:32:54.057Z,11.08
2023-09-24T23:35:48.073Z,11.12
2023-09-24T23:38:32.939Z,11.11
2023-09-24T23:41:25.057Z,11.08
2023-09-24T23:44:11.662Z,11.00
2023-09-24T23:47:03.045Z,10.97
2023-09-24T23:49:48.357Z,10.96
2023-09-24T23:52:40.069Z,10.92
2023-09-24T23:55:25.397Z,10.87
2023-09-24T23:58:17.053Z,10.88
